Time,TemperatureF,DewpointF,PressureIn,WindDirection,WindDirectionDegrees,WindSpeedMPH,WindSpeedGustMPH,Humidity,HourlyPrecipIn,Conditions,Clouds,dailyrainin,SoftwareType,DateUTC
2013-06-30 00:02:00,76.5,-30.9,29.61,South,180,2.7,-999.0,1,-99.99,,,0.00,Acu-Link.com,2013-06-30 04:02:00,
2013-06-30 00:17:00,76.3,-31.0,29.61,NW,315,2.7,-999.0,1,-99.99,,,0.00,Acu-Link.com,2013-06-30 04:17:00,
2013-06-30 00:32:00,75.9,-31.3,29.61,West,270,0.0,-999.0,1,-99.99,,,0.00,Acu-Link.com,2013-06-30 04:32:00,
2013-06-30 00:47:00,75.6,-31.5,29.62,WSW,247,3.7,-999.0,1,-99.99,,,0.00,Acu-Link.com,2013-06-30 04:47:00,
2013-06-30 01:03:00,75.2,-31.7,29.62,West,270,4.7,-999.0,1,-99.99,,,0.00,Acu-Link.com,2013-06-30 05:03:00,
2013-06-30 01:18:00,75.2,-31.7,29.62,WSW,247,1.7,-999.0,1,-99.99,,,0.00,Acu-Link.com,2013-06-30 05:18:00,
2013-06-30 01:33:00,75.0,-31.8,29.62,West,270,1.7,-999.0,1,-99.99,,,0.00,Acu-Link.com,2013-06-30 05:33:00,
2013-06-30 01:49:00,75.0,-31.8,29.62,WNW,292,0.0,-999.0,1,-99.99,,,0.00,Acu-Link.com,2013-06-30 05:49:00,
2013-06-30 02:04:00,75.2,-31.7,29.62,WSW,247,2.7,-999.0,1,-99.99,,,0.00,Acu-Link.com,2013-06-30 06:04:00,
2013-06-30 02:19:00,75.2,-31.7,29.62,East,90,0.0,-999.0,1,-99.99,,,0.00,Acu-Link.com,2013-06-30 06:19:00,
2013-06-30 02:34:00,75.2,-31.7,29.62,West,270,0.0,-999.0,1,-99.99,,,0.00,Acu-Link.com,2013-06-30 06:34:00,
2013-06-30 02:50:00,75.2,-31.7,29.61,North,0,3.2,-999.0,1,-99.99,,,0.00,Acu-Link.com,2013-06-30 06:50:00,
2013-06-30 03:05:00,75.2,-31.7,29.60,West,270,1.7,-999.0,1,-99.99,,,0.00,Acu-Link.com,2013-06-30 07:05:00,
2013-06-30 03:20:00,75.2,-31.7,29.60,WSW,247,2.7,-999.0,1,-99.99,,,0.00,Acu-Link.com,2013-06-30 07:20:00,
2013-06-30 03:35:00,75.0,-31.8,29.60,WSW,247,1.7,-999.0,1,-99.99,,,0.00,Acu-Link.com,2013-06-30 07:35:00,
2013-06-30 03:50:00,75.0,-31.8,29.59,WSW,247,0.0,-999.0,1,-99.99,,,0.00,Acu-Link.com,2013-06-30 07:50:00,
2013-06-30 04:06:00,74.8,-31.9,29.60,West,270,1.7,-999.0,1,-99.99,,,0.00,Acu-Link.com,2013-06-30 08:06:00,
2013-06-30 04:21:00,75.0,-31.8,29.60,North,0,2.2,-999.0,1,-99.99,,,0.00,Acu-Link.com,2013-06-30 08:21:00,
2013-06-30 04:36:00,75.0,-31.8,29.60,West,270,1.7,-999.0,1,-99.99,,,0.00,Acu-Link.com,2013-06-30 08:36:00,
2013-06-30 04:51:00,74.3,-32.2,29.61,WNW,292,2.2,-999.0,1,-99.99,,,0.00,Acu-Link.com,2013-06-30 08:51:00,
2013-06-30 05:07:00,73.4,-32.8,29.61,WSW,247,1.1,-999.0,1,-99.99,,,0.00,Acu-Link.com,2013-06-30 09:07:00,
2013-06-30 05:22:00,73.0,-33.0,29.61,ENE,67,0.0,-999.0,1,-99.99,,,0.00,Acu-Link.com,2013-06-30 09:22:00,
2013-06-30 05:37:00,72.3,-33.4,29.62,ESE,112,1.1,-999.0,1,-99.99,,,0.43,Acu-Link.com,2013-06-30 09:37:00,
2013-06-30 05:52:00,72.5,-33.3,29.63,WSW,247,0.0,-999.0,1,-99.99,,,0.43,Acu-Link.com,2013-06-30 09:52:00,
2013-06-30 06:07:00,72.5,-33.3,29.63,NNW,337,0.0,-999.0,1,-99.99,,,0.43,Acu-Link.com,2013-06-30 10:07:00,
2013-06-30 06:23:00,72.7,-33.2,29.64,West,270,0.0,-999.0,1,-99.99,,,0.43,Acu-Link.com,2013-06-30 10:23:00,
2013-06-30 06:38:00,72.7,-33.2,29.64,West,270,0.0,-999.0,1,-99.99,,,0.43,Acu-Link.com,2013-06-30 10:38:00,
2013-06-30 06:53:00,72.9,-33.1,29.65,SW,225,0.0,-999.0,1,-99.99,,,0.43,Acu-Link.com,2013-06-30 10:53:00,
2013-06-30 07:08:00,73.2,-32.9,29.65,West,270,0.0,-999.0,1,-99.99,,,0.43,Acu-Link.com,2013-06-30 11:08:00,
2013-06-30 07:24:00,73.6,-32.7,29.66,WSW,247,0.0,-999.0,1,-99.99,,,0.43,Acu-Link.com,2013-06-30 11:24:00,
2013-06-30 07:39:00,73.8,-32.5,29.66,SW,225,0.0,-999.0,1,-99.99,,,0.43,Acu-Link.com,2013-06-30 11:39:00,
2013-06-30 07:55:00,73.9,-32.5,29.66,South,180,0.0,-999.0,1,-99.99,,,0.43,Acu-Link.com,2013-06-30 11:55:00,
2013-06-30 08:10:00,74.7,-32.0,29.66,WSW,247,0.0,-999.0,1,-99.99,,,0.43,Acu-Link.com,2013-06-30 12:10:00,
2013-06-30 08:25:00,75.6,-31.5,29.67,SSE,157,1.1,-999.0,1,-99.99,,,0.43,Acu-Link.com,2013-06-30 12:25:00,
2013-06-30 08:40:00,75.6,-31.5,29.67,West,270,0.0,-999.0,1,-99.99,,,0.43,Acu-Link.com,2013-06-30 12:40:00,
2013-06-30 08:56:00,76.5,-30.9,29.66,NE,45,1.7,-999.0,1,-99.99,,,0.43,Acu-Link.com,2013-06-30 12:56:00,
2013-06-30 09:11:00,77.4,-30.4,29.67,WNW,292,1.7,-999.0,1,-99.99,,,0.44,Acu-Link.com,2013-06-30 13:11:00,
2013-06-30 09:26:00,77.5,-30.3,29.68,NNE,22,1.7,-999.0,1,-99.99,,,0.44,Acu-Link.com,2013-06-30 13:26:00,
2013-06-30 09:41:00,77.0,-30.6,29.68,NE,45,0.0,-999.0,1,-99.99,,,0.44,Acu-Link.com,2013-06-30 13:41:00,
2013-06-30 09:57:00,77.0,-30.6,29.67,WSW,247,1.7,-999.0,1,-99.99,,,0.44,Acu-Link.com,2013-06-30 13:57:00,
2013-06-30 10:12:00,77.4,-30.4,29.66,NE,45,0.0,-999.0,1,-99.99,,,0.44,Acu-Link.com,2013-06-30 14:12:00,
2013-06-30 10:27:00,77.0,-30.6,29.66,NNW,337,0.0,-999.0,1,-99.99,,,0.44,Acu-Link.com,2013-06-30 14:27:00,
2013-06-30 10:43:00,77.5,-30.3,29.67,East,90,0.0,-999.0,1,-99.99,,,0.44,Acu-Link.com,2013-06-30 14:43:00,
2013-06-30 10:58:00,78.8,33.0,29.67,SW,225,0.0,-999.0,19,-99.99,,,0.44,Acu-Link.com,2013-06-30 14:58:00,
2013-06-30 11:13:00,80.2,58.1,29.67,ESE,112,1.1,-999.0,47,-99.99,,,0.44,Acu-Link.com,2013-06-30 15:13:00,
2013-06-30 11:29:00,81.1,64.9,29.67,ESE,112,0.0,-999.0,58,-99.99,,,0.44,Acu-Link.com,2013-06-30 15:29:00,
2013-06-30 11:44:00,82.6,71.4,29.68,ESE,112,1.1,-999.0,69,-99.99,,,0.44,Acu-Link.com,2013-06-30 15:44:00,
2013-06-30 11:59:00,81.5,73.6,29.68,NE,45,0.0,-999.0,77,-99.99,,,0.44,Acu-Link.com,2013-06-30 15:59:00,
2013-06-30 12:14:00,81.7,75.7,29.68,ESE,112,2.2,-999.0,82,-99.99,,,0.44,Acu-Link.com,2013-06-30 16:14:00,
2013-06-30 12:29:00,82.9,76.5,29.67,South,180,1.7,-999.0,81,-99.99,,,0.44,Acu-Link.com,2013-06-30 16:29:00,
2013-06-30 12:44:00,84.6,78.1,29.67,ESE,112,1.1,-999.0,81,-99.99,,,0.44,Acu-Link.com,2013-06-30 16:44:00,
2013-06-30 12:59:00,84.2,78.1,29.67,NNE,22,0.0,-999.0,82,-99.99,,,0.44,Acu-Link.com,2013-06-30 16:59:00,
2013-06-30 13:15:00,84.6,79.2,29.66,NW,315,2.2,-999.0,84,-99.99,,,0.44,Acu-Link.com,2013-06-30 17:15:00,
2013-06-30 13:30:00,85.8,79.6,29.66,North,0,1.7,-999.0,82,-99.99,,,0.44,Acu-Link.com,2013-06-30 17:30:00,
2013-06-30 13:45:00,84.0,78.6,29.66,NNW,337,1.1,-999.0,84,-99.99,,,0.44,Acu-Link.com,2013-06-30 17:45:00,
2013-06-30 14:00:00,84.2,79.2,29.66,NNW,337,4.2,-999.0,85,-99.99,,,0.44,Acu-Link.com,2013-06-30 18:00:00,
2013-06-30 14:16:00,84.7,78.6,29.65,ESE,112,3.2,-999.0,82,-99.99,,,0.44,Acu-Link.com,2013-06-30 18:16:00,
2013-06-30 14:31:00,85.3,79.2,29.65,NE,45,1.1,-999.0,82,-99.99,,,0.44,Acu-Link.com,2013-06-30 18:31:00,
2013-06-30 14:47:00,86.7,79.8,29.64,West,270,2.2,-999.0,80,-99.99,,,0.44,Acu-Link.com,2013-06-30 18:47:00,
2013-06-30 15:02:00,84.2,78.5,29.64,NNE,22,2.2,-999.0,83,-99.99,,,0.44,Acu-Link.com,2013-06-30 19:02:00,
2013-06-30 15:17:00,84.2,78.5,29.65,WNW,292,5.3,-999.0,83,-99.99,,,0.44,Acu-Link.com,2013-06-30 19:17:00,
2013-06-30 15:32:00,83.3,78.3,29.65,North,0,1.1,-999.0,85,-99.99,,,0.44,Acu-Link.com,2013-06-30 19:32:00,
2013-06-30 15:48:00,84.2,78.1,29.67,WSW,247,2.7,-999.0,82,-99.99,,,0.44,Acu-Link.com,2013-06-30 19:48:00,
2013-06-30 16:03:00,79.5,74.2,29.69,WSW,247,4.2,-999.0,84,-99.99,,,0.44,Acu-Link.com,2013-06-30 20:03:00,
2013-06-30 16:18:00,75.0,72.8,29.69,WNW,292,2.7,-999.0,93,-99.99,,,0.44,Acu-Link.com,2013-06-30 20:18:00,
2013-06-30 16:34:00,71.1,61.6,29.68,WSW,247,0.0,-999.0,72,-99.99,,,0.58,Acu-Link.com,2013-06-30 20:34:00,
2013-06-30 16:49:00,70.5,45.7,29.70,South,180,0.0,-999.0,41,-99.99,,,0.99,Acu-Link.com,2013-06-30 20:49:00,
2013-06-30 17:04:00,71.1,-34.2,29.69,South,180,0.0,-999.0,1,-99.99,,,1.00,Acu-Link.com,2013-06-30 21:04:00,
2013-06-30 17:20:00,71.6,-33.9,29.70,South,180,1.7,-999.0,1,-99.99,,,1.00,Acu-Link.com,2013-06-30 21:20:00,
2013-06-30 17:35:00,71.1,-34.2,29.69,North,0,0.0,-999.0,1,-99.99,,,1.01,Acu-Link.com,2013-06-30 21:35:00,
2013-06-30 17:50:00,71.1,-34.2,29.68,SW,225,1.1,-999.0,1,-99.99,,,1.01,Acu-Link.com,2013-06-30 21:50:00,
2013-06-30 18:05:00,71.4,-34.0,29.69,West,270,1.7,-999.0,1,-99.99,,,1.01,Acu-Link.com,2013-06-30 22:05:00,
2013-06-30 18:21:00,71.2,-34.1,29.70,South,180,0.0,-999.0,1,-99.99,,,1.01,Acu-Link.com,2013-06-30 22:21:00,
2013-06-30 18:36:00,70.9,-34.3,29.70,SW,225,2.2,-999.0,1,-99.99,,,1.01,Acu-Link.com,2013-06-30 22:36:00,
2013-06-30 18:51:00,71.1,-34.2,29.70,SSW,202,0.0,-999.0,1,-99.99,,,1.01,Acu-Link.com,2013-06-30 22:51:00,
2013-06-30 19:07:00,71.1,-34.2,29.70,West,270,1.1,-999.0,1,-99.99,,,1.02,Acu-Link.com,2013-06-30 23:07:00,
2013-06-30 19:22:00,70.9,-34.3,29.70,West,270,0.0,-999.0,1,-99.99,,,1.02,Acu-Link.com,2013-06-30 23:22:00,
2013-06-30 19:38:00,70.7,-34.4,29.71,SW,225,1.7,-999.0,1,-99.99,,,1.02,Acu-Link.com,2013-06-30 23:38:00,
2013-06-30 19:53:00,70.5,-34.5,29.71,WSW,247,0.0,-999.0,1,-99.99,,,1.02,Acu-Link.com,2013-06-30 23:53:00,
2013-06-30 20:08:00,70.5,-34.5,29.71,SSW,202,0.0,-999.0,1,-99.99,,,1.02,Acu-Link.com,2013-07-01 00:08:00,
2013-06-30 20:23:00,70.3,-34.6,29.72,West,270,1.1,-999.0,1,-99.99,,,1.02,Acu-Link.com,2013-07-01 00:23:00,
2013-06-30 20:39:00,70.7,-34.4,29.73,South,180,0.0,-999.0,1,-99.99,,,1.04,Acu-Link.com,2013-07-01 00:39:00,
2013-06-30 20:54:00,70.5,-34.5,29.73,SW,225,0.0,-999.0,1,-99.99,,,1.06,Acu-Link.com,2013-07-01 00:54:00,
2013-06-30 21:09:00,70.5,-34.5,29.73,South,180,0.0,-999.0,1,-99.99,,,1.10,Acu-Link.com,2013-07-01 01:09:00,
2013-06-30 21:25:00,70.5,-34.5,29.72,South,180,0.0,-999.0,1,-99.99,,,1.10,Acu-Link.com,2013-07-01 01:25:00,
2013-06-30 21:40:00,70.5,-34.5,29.73,South,180,0.0,-999.0,1,-99.99,,,1.10,Acu-Link.com,2013-07-01 01:40:00,
2013-06-30 21:55:00,70.5,-34.5,29.74,WNW,292,0.0,-999.0,1,-99.99,,,1.10,Acu-Link.com,2013-07-01 01:55:00,
2013-06-30 22:11:00,70.5,-34.5,29.74,WNW,292,0.0,-999.0,1,-99.99,,,1.10,Acu-Link.com,2013-07-01 02:11:00,
2013-06-30 22:26:00,70.7,-34.4,29.74,WNW,292,0.0,-999.0,1,-99.99,,,1.10,Acu-Link.com,2013-07-01 02:26:00,
2013-06-30 22:41:00,70.9,-34.3,29.75,West,270,0.0,-999.0,1,-99.99,,,1.11,Acu-Link.com,2013-07-01 02:41:00,
2013-06-30 22:57:00,70.9,-34.3,29.74,NW,315,0.0,-999.0,1,-99.99,,,1.12,Acu-Link.com,2013-07-01 02:57:00,
2013-06-30 23:12:00,70.9,-34.3,29.74,NNW,337,0.0,-999.0,1,-99.99,,,1.12,Acu-Link.com,2013-07-01 03:12:00,
2013-06-30 23:27:00,70.9,-34.3,29.74,SW,225,0.0,-999.0,1,-99.99,,,1.12,Acu-Link.com,2013-07-01 03:27:00,
2013-06-30 23:42:00,70.9,-34.3,29.74,WSW,247,0.0,-999.0,1,-99.99,,,1.12,Acu-Link.com,2013-07-01 03:42:00,
2013-06-30 23:58:00,70.9,-34.3,29.75,NNW,337,1.1,-999.0,1,-99.99,,,1.13,Acu-Link.com,2013-07-01 03:58:00,